createdAt,value
2023-04-18T00:00:38.236Z,100403.34
2023-04-18T00:01:40.546Z,100404.16
2023-04-18T00:02:42.884Z,100397.89
2023-04-18T00:03:52.786Z,100396.17
2023-04-18T00:04:59.190Z,100398.84
2023-04-18T00:06:01.677Z,100399.60
2023-04-18T00:07:08.015Z,100397.89
2023-04-18T00:08:10.810Z,100404.16
2023-04-18T00:09:18.698Z,100398.74
2023-04-18T00:10:22.008Z,100396.17
2023-04-18T00:11:26.528Z,100389.91
2023-04-18T00:12:28.782Z,100396.17
2023-04-18T00:13:31.660Z,100393.52
2023-04-18T00:14:37.036Z,100399.83
2023-04-18T00:15:42.509Z,100391.84
2023-04-18T00:16:47.543Z,100398.97
2023-04-18T00:17:52.799Z,100394.50
2023-04-18T00:18:56.934Z,100396.17
2023-04-18T00:19:59.010Z,100398.11
2023-04-18T00:21:01.563Z,100399.83
2023-04-18T00:22:04.455Z,100395.45
2023-04-18T00:23:06.503Z,100395.45
2023-04-18T00:24:08.941Z,100383.00
2023-04-18T00:25:11.013Z,100395.35
2023-04-18T00:26:13.696Z,100393.64
2023-04-18T00:27:20.608Z,100391.93
2023-04-18T00:28:22.927Z,100393.77
2023-04-18T00:29:25.344Z,100403.56
2023-04-18T00:30:28.328Z,100396.53
2023-04-18T00:31:31.843Z,100394.81
2023-04-18T00:32:34.407Z,100396.66
2023-04-18T00:33:36.537Z,100399.31
2023-04-18T00:34:38.724Z,100395.67
2023-04-18T00:35:40.768Z,100396.66
2023-04-18T00:36:43.477Z,100393.01
2023-04-18T00:37:45.622Z,100394.08
2023-04-18T00:38:47.778Z,100392.28
2023-04-18T00:39:54.163Z,100390.56
2023-04-18T00:40:54.097Z,100390.56
2023-04-18T00:41:56.365Z,100391.55
2023-04-18T00:42:59.448Z,100395.06
2023-04-18T00:44:02.242Z,100391.55
2023-04-18T00:45:06.157Z,100395.06
2023-04-18T00:46:09.603Z,100402.20
2023-04-18T00:47:11.858Z,100396.02
2023-04-18T00:48:14.139Z,100402.29
2023-04-18T00:49:16.309Z,100392.50
2023-04-18T00:50:19.017Z,100396.87
2023-04-18T00:51:22.296Z,100392.63
2023-04-18T00:52:25.621Z,100394.30
2023-04-18T00:53:28.138Z,100390.91
2023-04-18T00:54:30.429Z,100392.72
2023-04-18T00:55:32.731Z,100393.58
2023-04-18T00:56:35.579Z,100387.52
2023-04-18T00:57:38.324Z,100391.86
2023-04-18T00:58:40.492Z,100387.52
2023-04-18T00:59:42.813Z,100392.84
2023-04-18T01:00:46.494Z,100391.14
2023-04-18T01:01:49.179Z,100384.95
2023-04-18T01:02:51.528Z,100395.51
2023-04-18T01:03:53.862Z,100391.14
2023-04-18T01:04:56.651Z,100392.94
2023-04-18T01:05:58.946Z,100389.45
2023-04-18T01:07:01.646Z,100384.13
2023-04-18T01:08:04.622Z,100395.00
2023-04-18T01:09:09.037Z,100393.06
2023-04-18T01:10:12.177Z,100394.02
2023-04-18T01:11:14.224Z,100384.35
2023-04-18T01:12:16.507Z,100385.17
2023-04-18T01:13:19.936Z,100389.67
2023-04-18T01:14:22.353Z,100395.95
2023-04-18T01:15:24.853Z,100386.16
2023-04-18T01:16:28.359Z,100392.43
2023-04-18T01:17:30.958Z,100390.75
2023-04-18T01:18:33.505Z,100389.77
2023-04-18T01:19:36.996Z,100396.89
2023-04-18T01:20:46.868Z,100395.09
2023-04-18T01:21:49.218Z,100392.43
2023-04-18T01:22:52.070Z,100392.43
2023-04-18T01:23:55.112Z,100391.57
2023-04-18T01:24:58.320Z,100389.98
2023-04-18T01:26:00.544Z,100389.98
2023-04-18T01:27:02.873Z,100379.44
2023-04-18T01:28:05.963Z,100387.33
2023-04-18T01:29:07.948Z,100384.76
2023-04-18T01:30:11.244Z,100384.76
2023-04-18T01:31:13.757Z,100384.76
2023-04-18T01:32:29.261Z,100389.23
2023-04-18T01:33:31.570Z,100383.91
2023-04-18T01:34:33.833Z,100381.37
2023-04-18T01:35:36.031Z,100384.03
2023-04-18T01:37:56.349Z,100384.95
2023-04-18T01:38:59.093Z,100383.61
2023-04-18T01:40:01.386Z,100385.32
2023-04-18T01:41:03.544Z,100385.19
2023-04-18T01:42:05.749Z,100380.73
2023-04-18T01:43:08.613Z,100380.73
2023-04-18T01:44:12.994Z,100383.39
2023-04-18T01:45:16.232Z,100384.34
2023-04-18T01:46:18.815Z,100390.52
2023-04-18T01:47:21.045Z,100379.02
2023-04-18T01:48:23.186Z,100383.39
2023-04-18T01:49:25.483Z,100380.73
2023-04-18T01:50:27.843Z,100382.44
2023-04-18T01:51:29.996Z,100388.71
2023-04-18T01:52:32.325Z,100379.02
2023-04-18T01:53:34.357Z,100378.16
2023-04-18T01:54:36.532Z,100383.48
2023-04-18T01:55:38.685Z,100387.13
2023-04-18T01:56:41.800Z,100381.89
2023-04-18T01:57:44.188Z,100378.29
2023-04-18T01:58:46.982Z,100382.75
2023-04-18T01:59:49.278Z,100382.75
2023-04-18T02:00:54.621Z,100385.41
2023-04-18T02:01:57.547Z,100379.36
2023-04-18T02:03:00.022Z,100376.70
2023-04-18T02:04:03.213Z,100378.50
2023-04-18T02:05:06.720Z,100377.56
2023-04-18T02:06:09.615Z,100380.22
2023-04-18T02:07:12.197Z,100376.70
2023-04-18T02:08:14.365Z,100377.65
2023-04-18T02:09:16.666Z,100370.52
2023-04-18T02:10:19.476Z,100373.31
2023-04-18T02:11:21.812Z,100379.45
2023-04-18T02:13:34.959Z,100370.72
2023-04-18T02:14:39.999Z,100370.23
2023-04-18T02:15:43.841Z,100378.84
2023-04-18T02:16:47.942Z,100372.67
2023-04-18T02:17:50.802Z,100374.38
2023-04-18T02:18:53.444Z,100377.05
2023-04-18T02:19:55.605Z,100377.05
2023-04-18T02:20:58.472Z,100374.38
2023-04-18T02:22:00.515Z,100369.06
2023-04-18T02:23:05.819Z,100370.02
2023-04-18T02:24:08.460Z,100375.33
2023-04-18T02:25:11.091Z,100374.60
2023-04-18T02:26:14.715Z,100364.05
2023-04-18T02:27:18.045Z,100375.67
2023-04-18T02:28:20.119Z,100371.17
2023-04-18T02:29:22.170Z,100376.50
2023-04-18T02:30:25.154Z,100376.50
2023-04-18T02:31:28.093Z,100378.33
2023-04-18T02:32:30.458Z,100374.69
2023-04-18T02:33:32.700Z,100372.25
2023-04-18T02:34:36.250Z,100385.55
2023-04-18T02:35:38.458Z,100374.09
2023-04-18T02:36:40.616Z,100372.37
2023-04-18T02:37:44.752Z,100374.30
2023-04-18T02:38:49.084Z,100376.96
2023-04-18T02:39:51.372Z,100378.77
2023-04-18T02:40:53.659Z,100375.25
2023-04-18T02:41:56.492Z,100376.11
2023-04-18T02:42:59.981Z,100373.54
2023-04-18T02:44:02.990Z,100376.11
2023-04-18T02:45:06.875Z,100378.77
2023-04-18T02:46:10.298Z,100378.77
2023-04-18T02:47:12.511Z,100375.25
2023-04-18T02:48:17.457Z,100373.54
2023-04-18T02:49:21.612Z,100373.54
2023-04-18T02:50:24.619Z,100371.73
2023-04-18T02:51:27.671Z,100375.38
2023-04-18T02:52:30.983Z,100377.18
2023-04-18T02:53:34.388Z,100378.98
2023-04-18T02:54:36.689Z,100374.52
2023-04-18T02:55:40.857Z,100376.32
2023-04-18T02:56:43.554Z,100378.03
2023-04-18T02:57:50.996Z,100374.39
2023-04-18T02:58:58.427Z,100375.38
2023-04-18T03:00:10.092Z,100377.05
2023-04-18T03:01:18.801Z,100375.38
2023-04-18T03:02:29.253Z,100373.54
2023-04-18T03:03:34.142Z,100374.52
2023-04-18T03:04:44.483Z,100371.86
2023-04-18T03:05:47.109Z,100376.32
2023-04-18T03:06:50.045Z,100372.80
2023-04-18T03:07:53.551Z,100369.29
2023-04-18T03:08:58.679Z,100373.75
2023-04-18T03:10:02.104Z,100373.66
2023-04-18T03:11:06.237Z,100379.08
2023-04-18T03:12:09.324Z,100371.95
2023-04-18T03:13:12.038Z,100371.00
2023-04-18T03:14:14.565Z,100375.47
2023-04-18T03:15:19.054Z,100370.15
2023-04-18T03:16:22.399Z,100371.09
2023-04-18T03:17:25.427Z,100364.95
2023-04-18T03:18:28.205Z,100372.93
2023-04-18T03:19:32.788Z,100374.61
2023-04-18T03:20:37.264Z,100366.63
2023-04-18T03:21:41.739Z,100367.61
2023-04-18T03:22:44.351Z,100379.32
2023-04-18T03:23:47.392Z,100374.95
2023-04-18T03:24:50.815Z,100372.16
2023-04-18T03:25:53.646Z,100374.83
2023-04-18T03:26:56.240Z,100377.61
2023-04-18T03:28:00.251Z,100378.55
2023-04-18T03:29:02.828Z,100376.75
2023-04-18T03:30:07.354Z,100372.29
2023-04-18T03:31:10.540Z,100374.95
2023-04-18T03:32:14.186Z,100377.73
2023-04-18T03:33:17.051Z,100379.53
2023-04-18T03:34:22.230Z,100379.41
2023-04-18T03:35:25.732Z,100380.27
2023-04-18T03:36:31.441Z,100382.92
2023-04-18T03:37:34.357Z,100383.78
2023-04-18T03:38:38.299Z,100385.46
2023-04-18T03:39:41.283Z,100381.00
2023-04-18T03:40:43.816Z,100387.17
2023-04-18T03:41:48.407Z,100379.20
2023-04-18T03:42:50.616Z,100387.05
2023-04-18T03:43:53.003Z,100386.11
2023-04-18T03:44:55.135Z,100380.78
2023-04-18T03:46:01.815Z,100381.64
2023-04-18T03:47:04.209Z,100383.35
2023-04-18T03:48:07.554Z,100382.50
2023-04-18T03:49:11.352Z,100381.52
2023-04-18T03:50:14.035Z,100377.05
2023-04-18T03:51:17.438Z,100382.38
2023-04-18T03:52:19.716Z,100379.72
2023-04-18T03:53:22.548Z,100378.86
2023-04-18T03:54:24.802Z,100381.42
2023-04-18T03:55:27.341Z,100376.96
2023-04-18T03:56:30.452Z,100377.78
2023-04-18T03:57:32.637Z,100380.45
2023-04-18T03:58:35.389Z,100386.63
2023-04-18T03:59:37.841Z,100382.16
2023-04-18T04:00:41.657Z,100376.84
2023-04-18T04:01:44.678Z,100380.35
2023-04-18T04:02:47.445Z,100377.57
2023-04-18T04:03:51.940Z,100377.48
2023-04-18T04:04:54.788Z,100380.23
2023-04-18T04:05:58.067Z,100381.09
2023-04-18T04:07:00.689Z,100388.12
2023-04-18T04:08:03.578Z,100376.50
2023-04-18T04:09:05.993Z,100376.50
2023-04-18T04:10:09.037Z,100374.60
2023-04-18T04:11:11.658Z,100375.42
2023-04-18T04:12:14.486Z,100377.13
2023-04-18T04:13:18.182Z,100377.99
2023-04-18T04:14:20.442Z,100378.72
2023-04-18T04:15:24.032Z,100377.87
2023-04-18T04:16:32.473Z,100375.11
2023-04-18T04:17:35.735Z,100374.98
2023-04-18T04:18:38.436Z,100379.36
2023-04-18T04:19:40.702Z,100374.77
2023-04-18T04:21:56.386Z,100373.80
2023-04-18T04:22:58.624Z,100378.41
2023-04-18T04:24:01.203Z,100375.50
2023-04-18T04:25:10.956Z,100371.80
2023-04-18T04:26:14.782Z,100374.33
2023-04-18T04:27:19.058Z,100376.05
2023-04-18T04:28:22.536Z,100370.59
2023-04-18T04:29:27.953Z,100368.61
2023-04-18T04:30:30.474Z,100378.17
2023-04-18T04:31:32.747Z,100372.85
2023-04-18T04:32:54.903Z,100371.78
2023-04-18T04:35:09.428Z,100368.83
2023-04-18T04:36:12.345Z,100375.30
2023-04-18T04:37:14.533Z,100375.90
2023-04-18T04:38:18.544Z,100373.02
2023-04-18T04:39:21.960Z,100365.89
2023-04-18T04:40:29.040Z,100374.59
2023-04-18T04:41:33.055Z,100373.65
2023-04-18T04:42:35.411Z,100374.38
2023-04-18T04:43:39.406Z,100376.95
2023-04-18T04:44:41.809Z,100372.34
2023-04-18T04:45:44.819Z,100369.56
2023-04-18T04:46:47.680Z,100372.13
2023-04-18T04:47:51.806Z,100372.00
2023-04-18T04:48:57.637Z,100373.70
2023-04-18T04:50:01.239Z,100370.92
2023-04-18T04:51:03.413Z,100377.83
2023-04-18T04:52:05.592Z,100375.92
2023-04-18T04:53:08.535Z,100384.64
2023-04-18T04:54:13.396Z,100373.86
2023-04-18T04:56:36.927Z,100388.58
2023-04-18T04:57:40.629Z,100383.47
2023-04-18T04:58:44.753Z,100380.55
2023-04-18T04:59:54.840Z,100388.21
2023-04-18T05:00:57.316Z,100387.13
2023-04-18T05:01:59.641Z,100385.92
2023-04-18T05:03:02.662Z,100391.16
2023-04-18T05:04:05.224Z,100394.44
2023-04-18T05:05:07.809Z,100389.62
2023-04-18T05:06:11.157Z,100399.33
2023-04-18T05:07:13.231Z,100401.41
2023-04-18T05:08:15.917Z,100403.74
2023-04-18T05:09:18.444Z,100403.61
2023-04-18T05:10:22.074Z,100404.23
2023-04-18T05:11:24.416Z,100400.48
2023-04-18T05:12:26.356Z,100399.41
2023-04-18T05:13:28.359Z,100397.45
2023-04-18T05:14:30.601Z,100395.65
2023-04-18T05:15:33.124Z,100396.27
2023-04-18T05:16:35.389Z,100402.09
2023-04-18T05:17:38.257Z,100401.86
2023-04-18T05:18:40.548Z,100401.62
2023-04-18T05:19:42.990Z,100405.88
2023-04-18T05:20:45.669Z,100402.98
2023-04-18T05:21:47.644Z,100406.98
2023-04-18T05:22:49.739Z,100405.77
2023-04-18T05:23:51.806Z,100407.23
2023-04-18T05:24:53.800Z,100409.56
2023-04-18T05:25:56.022Z,100398.66
2023-04-18T05:26:58.261Z,100408.14
2023-04-18T05:28:00.721Z,100405.34
2023-04-18T05:29:03.241Z,100402.30
2023-04-18T05:30:07.562Z,100407.39
2023-04-18T05:31:11.464Z,100401.95
2023-04-18T05:32:14.103Z,100396.48
2023-04-18T05:33:17.197Z,100401.58
2023-04-18T05:34:19.983Z,100404.11
2023-04-18T05:35:22.229Z,100399.53
2023-04-18T05:36:24.499Z,100399.39
2023-04-18T05:37:26.698Z,100400.97
2023-04-18T05:38:29.446Z,100406.06
2023-04-18T05:39:32.569Z,100402.20
2023-04-18T05:40:34.881Z,100400.25
2023-04-18T05:41:36.836Z,100397.34
2023-04-18T05:42:39.100Z,100403.39
2023-04-18T05:43:42.913Z,100401.44
2023-04-18T05:44:45.128Z,100402.30
2023-04-18T05:45:47.630Z,100399.52
2023-04-18T05:46:50.256Z,100397.57
2023-04-18T05:47:52.488Z,100401.95
2023-04-18T05:48:55.366Z,100397.44
2023-04-18T05:49:57.997Z,100399.86
2023-04-18T05:51:00.706Z,100401.57
2023-04-18T05:52:03.006Z,100399.62
2023-04-18T05:53:05.164Z,100400.33
2023-04-18T05:54:08.175Z,100398.52
2023-04-18T05:55:11.478Z,100400.95
2023-04-18T05:56:13.771Z,100397.31
2023-04-18T05:57:16.297Z,100400.70
2023-04-18T05:58:18.498Z,100395.22
2023-04-18T05:59:20.690Z,100395.97
2023-04-18T06:00:22.893Z,100391.48
2023-04-18T06:01:25.233Z,100396.69
2023-04-18T06:02:27.454Z,100394.73
2023-04-18T06:04:49.101Z,100396.42
2023-04-18T06:05:51.803Z,100396.69
2023-04-18T06:06:54.457Z,100398.39
2023-04-18T06:07:56.629Z,100404.56
2023-04-18T06:08:58.931Z,100397.41
2023-04-18T06:10:01.168Z,100400.07
2023-04-18T06:11:03.826Z,100400.07
2023-04-18T06:12:06.116Z,100399.22
2023-04-18T06:13:08.181Z,100396.55
2023-04-18T06:14:10.959Z,100397.55
2023-04-18T06:15:13.505Z,100395.72
2023-04-18T06:16:15.731Z,100392.06
2023-04-18T06:17:18.488Z,100394.73
2023-04-18T06:18:20.673Z,100400.07
2023-04-18T06:19:22.924Z,100388.53
2023-04-18T06:20:24.974Z,100392.91
2023-04-18T06:21:27.369Z,100391.95
2023-04-18T06:22:29.933Z,100397.30
2023-04-18T06:23:32.004Z,100398.12
2023-04-18T06:24:34.652Z,100392.91
2023-04-18T06:25:36.769Z,100393.77
2023-04-18T06:26:39.027Z,100400.07
2023-04-18T06:27:41.120Z,100398.39
2023-04-18T06:28:43.397Z,100394.16
2023-04-18T06:29:45.459Z,100395.11
2023-04-18T06:30:47.739Z,100401.42
2023-04-18T06:31:50.264Z,100393.55
2023-04-18T06:32:53.616Z,100396.22
2023-04-18T06:33:56.180Z,100396.32
2023-04-18T06:34:58.401Z,100398.28
2023-04-18T06:36:00.651Z,100403.75
2023-04-18T06:37:02.895Z,100402.89
2023-04-18T06:38:05.571Z,100402.18
2023-04-18T06:39:08.637Z,100405.81
2023-04-18T06:40:12.024Z,100406.77
2023-04-18T06:41:15.310Z,100412.25
2023-04-18T06:42:17.695Z,100408.97
2023-04-18T06:43:23.201Z,100397.44
2023-04-18T06:44:26.180Z,100403.02
2023-04-18T06:45:30.281Z,100400.48
2023-04-18T06:46:33.071Z,100403.15
2023-04-18T06:47:36.433Z,100404.97
2023-04-18T06:48:39.088Z,100398.91
2023-04-18T06:49:42.470Z,100404.25
2023-04-18T06:50:44.697Z,100397.20
2023-04-18T06:51:47.042Z,100407.02
2023-04-18T06:52:49.403Z,100400.86
2023-04-18T06:53:52.480Z,100410.68
2023-04-18T06:54:54.742Z,100405.34
2023-04-18T06:55:56.775Z,100410.68
2023-04-18T06:56:59.361Z,100406.20
2023-04-18T06:58:01.729Z,100409.69
2023-04-18T06:59:04.001Z,100406.20
2023-04-18T07:00:07.730Z,100408.87
2023-04-18T07:01:10.109Z,100400.86
2023-04-18T07:02:12.490Z,100412.36
2023-04-18T07:03:14.719Z,100414.20
2023-04-18T07:04:17.407Z,100410.68
2023-04-18T07:05:20.344Z,100407.88
2023-04-18T07:06:23.376Z,100407.02
2023-04-18T07:07:26.263Z,100410.55
2023-04-18T07:08:28.520Z,100413.21
2023-04-18T07:09:32.624Z,100407.88
2023-04-18T07:10:34.833Z,100413.21
2023-04-18T07:11:36.910Z,100413.21
2023-04-18T07:12:39.126Z,100410.55
2023-04-18T07:13:41.883Z,100410.55
2023-04-18T07:14:44.734Z,100414.92
2023-04-18T07:15:47.445Z,100413.11
2023-04-18T07:16:50.985Z,100409.59
2023-04-18T07:17:53.541Z,100406.78
2023-04-18T07:18:56.182Z,100414.68
2023-04-18T07:19:58.825Z,100410.06
2023-04-18T07:21:00.957Z,100407.28
2023-04-18T07:22:03.287Z,100405.34
2023-04-18T07:23:05.510Z,100409.44
2023-04-18T07:24:07.645Z,100405.67
2023-04-18T07:25:09.917Z,100401.91
2023-04-18T07:26:12.724Z,100405.33
2023-04-18T07:27:14.928Z,100408.47
2023-04-18T07:28:17.117Z,100399.11
2023-04-18T07:29:19.200Z,100402.25
2023-04-18T07:30:22.018Z,100396.42
2023-04-18T07:31:24.096Z,100397.73
2023-04-18T07:32:26.280Z,100402.59
2023-04-18T07:33:28.577Z,100398.67
2023-04-18T07:34:31.227Z,100396.46
2023-04-18T07:35:35.178Z,100398.78
2023-04-18T07:36:37.444Z,100399.48
2023-04-18T07:37:43.421Z,100394.61
2023-04-18T07:38:46.217Z,100395.20
2023-04-18T07:39:49.043Z,100394.24
2023-04-18T07:40:59.361Z,100394.14
2023-04-18T07:42:03.767Z,100396.66
2023-04-18T07:43:07.451Z,100393.88
2023-04-18T07:44:11.659Z,100395.56
2023-04-18T07:45:13.859Z,100398.12
2023-04-18T07:46:16.126Z,100400.55
2023-04-18T07:47:22.400Z,100395.91
2023-04-18T07:49:38.302Z,100398.84
2023-04-18T07:50:40.333Z,100389.05
2023-04-18T07:51:42.408Z,100391.47
2023-04-18T07:52:45.036Z,100393.89
2023-04-18T07:53:47.408Z,100394.48
2023-04-18T07:54:49.508Z,100391.56
2023-04-18T07:55:52.039Z,100393.98
2023-04-18T07:56:58.693Z,100398.33
2023-04-18T07:59:22.950Z,100389.73
2023-04-18T08:00:25.216Z,100392.47
2023-04-18T08:01:27.424Z,100388.56
2023-04-18T08:02:30.053Z,100385.75
2023-04-18T08:03:34.087Z,100389.84
2023-04-18T08:04:36.618Z,100377.91
2023-04-18T08:05:42.499Z,100379.36
2023-04-18T08:06:46.118Z,100387.69
2023-04-18T08:07:49.281Z,100391.55
2023-04-18T08:08:53.553Z,100386.49
2023-04-18T08:10:11.266Z,100379.50
2023-04-18T08:11:14.725Z,100376.30
2023-04-18T08:12:19.731Z,100381.82
2023-04-18T08:13:22.684Z,100376.75
2023-04-18T08:14:24.988Z,100373.70
2023-04-18T08:15:27.452Z,100388.67
2023-04-18T08:16:29.781Z,100373.19
2023-04-18T08:17:31.902Z,100373.74
2023-04-18T08:18:35.718Z,100376.16
2023-04-18T08:19:38.709Z,100372.35
2023-04-18T08:20:43.987Z,100371.23
2023-04-18T08:21:46.478Z,100369.41
2023-04-18T08:23:05.240Z,100376.47
2023-04-18T08:23:53.366Z,100365.61
2023-04-18T08:25:04.384Z,100372.67
2023-04-18T08:26:00.727Z,100368.02
2023-04-18T08:27:02.976Z,100375.08
2023-04-18T08:28:05.155Z,100361.68
2023-04-18T08:29:07.315Z,100369.56
2023-04-18T08:31:21.412Z,100353.38
2023-04-18T08:32:26.135Z,100365.33
2023-04-18T08:33:31.399Z,100362.66
2023-04-18T08:34:36.132Z,100370.69
2023-04-18T08:35:38.487Z,100368.02
2023-04-18T08:36:40.638Z,100368.98
2023-04-18T08:37:43.431Z,100360.13
2023-04-18T08:38:45.493Z,100364.63
2023-04-18T08:39:48.169Z,100366.30
2023-04-18T08:40:50.360Z,100368.28
2023-04-18T08:41:58.513Z,100366.61
2023-04-18T08:43:01.748Z,100357.72
2023-04-18T08:44:05.224Z,100366.73
2023-04-18T08:45:07.775Z,100359.70
2023-04-18T08:46:10.930Z,100364.20
2023-04-18T08:47:14.035Z,100363.34
2023-04-18T08:48:17.557Z,100363.34
2023-04-18T08:49:19.995Z,100362.50
2023-04-18T08:50:22.371Z,100363.34
2023-04-18T08:51:25.161Z,100359.11
2023-04-18T08:52:28.964Z,100357.41
2023-04-18T08:53:33.098Z,100363.77
2023-04-18T08:54:37.019Z,100361.21
2023-04-18T08:55:39.349Z,100357.68
2023-04-18T08:56:42.050Z,100361.36
2023-04-18T08:57:45.656Z,100352.59
2023-04-18T08:58:48.705Z,100352.59
2023-04-18T08:59:51.873Z,100357.95
2023-04-18T09:00:54.914Z,100344.71
2023-04-18T09:01:57.790Z,100350.06
2023-04-18T09:03:00.148Z,100346.53
2023-04-18T09:04:02.773Z,100347.54
2023-04-18T09:05:15.061Z,100345.56
2023-04-18T09:06:18.440Z,100349.22
2023-04-18T09:07:28.749Z,100349.22
2023-04-18T09:08:31.982Z,100355.42
2023-04-18T09:12:40.150Z,100351.52
2023-04-18T09:13:43.488Z,100342.19
2023-04-18T09:14:46.961Z,100341.88
2023-04-18T09:15:55.157Z,100334.59
2023-04-18T09:16:57.810Z,100332.73
2023-04-18T09:18:01.543Z,100339.67
2023-04-18T09:19:13.590Z,100353.76
2023-04-18T09:21:31.717Z,100329.00
2023-04-18T09:24:17.773Z,100331.52
2023-04-18T09:25:29.625Z,100328.11
2023-04-18T09:26:35.000Z,100331.38
2023-04-18T09:27:38.360Z,100333.77
2023-04-18T09:28:40.689Z,100336.30
2023-04-18T09:29:44.975Z,100337.86
2023-04-18T09:30:49.895Z,100335.91
2023-04-18T09:31:55.835Z,100345.50
2023-04-18T09:33:00.592Z,100336.45
2023-04-18T09:34:02.880Z,100328.30
2023-04-18T09:35:05.316Z,100339.71
2023-04-18T09:36:20.323Z,100330.70
2023-04-18T09:37:23.070Z,100337.45
2023-04-18T09:38:41.292Z,100332.80
2023-04-18T09:39:44.281Z,100334.38
2023-04-18T09:40:46.818Z,100333.25
2023-04-18T09:41:58.858Z,100329.56
2023-04-18T09:43:03.447Z,100334.08
2023-04-18T09:44:14.017Z,100332.95
2023-04-18T09:45:14.525Z,100331.97
2023-04-18T09:46:16.798Z,100326.61
2023-04-18T09:47:19.203Z,100326.48
2023-04-18T09:48:21.379Z,100322.80
2023-04-18T09:49:23.621Z,100325.36
2023-04-18T09:50:25.938Z,100330.72
2023-04-18T09:51:29.327Z,100325.20
2023-04-18T09:53:53.721Z,100312.36
2023-04-18T09:54:57.071Z,100324.51
2023-04-18T09:55:59.752Z,100319.84
2023-04-18T09:57:03.698Z,100324.23
2023-04-18T09:58:06.601Z,100324.23
2023-04-18T09:59:11.699Z,100320.54
2023-04-18T10:00:23.086Z,100326.75
2023-04-18T10:01:28.813Z,100320.54
2023-04-18T10:02:41.964Z,100320.54
2023-04-18T10:03:47.261Z,100318.87
2023-04-18T10:04:50.174Z,100317.04
2023-04-18T10:05:52.888Z,100321.55
2023-04-18T10:06:55.600Z,100325.08
2023-04-18T10:08:00.241Z,100326.91
2023-04-18T10:09:04.355Z,100319.84
2023-04-18T10:10:08.801Z,100315.34
2023-04-18T10:11:11.928Z,100318.99
2023-04-18T10:12:16.082Z,100324.34
2023-04-18T10:13:21.721Z,100320.81
2023-04-18T10:14:24.517Z,100313.63
2023-04-18T10:15:29.326Z,100315.46
2023-04-18T10:16:40.544Z,100311.11
2023-04-18T10:18:04.593Z,100316.47
2023-04-18T10:19:23.304Z,100312.94
2023-04-18T10:21:43.173Z,100308.41
2023-04-18T10:22:47.324Z,100313.37
2023-04-18T10:23:49.563Z,100315.04
2023-04-18T10:24:52.674Z,100308.83
2023-04-18T10:25:54.912Z,100307.85
2023-04-18T10:26:57.600Z,100308.01
2023-04-18T10:28:01.596Z,100306.15
2023-04-18T10:29:03.769Z,100305.45
2023-04-18T10:30:09.111Z,100309.14
2023-04-18T10:31:11.787Z,100308.29
2023-04-18T10:32:15.380Z,100313.64
2023-04-18T10:33:31.072Z,100312.95
2023-04-18T10:34:31.238Z,100313.92
2023-04-18T10:35:35.235Z,100308.56
2023-04-18T10:36:42.777Z,100303.33
2023-04-18T10:37:52.500Z,100313.34
2023-04-18T10:39:03.402Z,100309.81
2023-04-18T10:40:08.551Z,100308.27
2023-04-18T10:42:53.778Z,100312.64
2023-04-18T10:44:10.806Z,100311.52
2023-04-18T10:45:20.616Z,100308.84
2023-04-18T10:46:31.825Z,100305.31
2023-04-18T10:47:27.128Z,100310.67
2023-04-18T10:48:29.707Z,100313.47
2023-04-18T10:49:36.163Z,100311.80
2023-04-18T10:50:59.393Z,100303.89
2023-04-18T10:52:03.531Z,100304.89
2023-04-18T10:53:10.884Z,100306.72
2023-04-18T10:54:31.789Z,100305.98
2023-04-18T10:55:35.093Z,100313.20
2023-04-18T10:56:37.486Z,100304.31
2023-04-18T10:58:53.134Z,100306.29
2023-04-18T10:59:56.412Z,100313.05
2023-04-18T11:01:01.860Z,100308.52
2023-04-18T11:03:44.182Z,100302.06
2023-04-18T11:04:55.264Z,100302.61
2023-04-18T11:06:06.025Z,100307.97
2023-04-18T11:07:10.208Z,100306.96
2023-04-18T11:08:23.997Z,100311.50
2023-04-18T11:09:31.440Z,100305.29
2023-04-18T11:10:34.815Z,100302.61
2023-04-18T11:11:39.478Z,100310.77
2023-04-18T11:12:52.497Z,100311.77
2023-04-18T11:13:58.546Z,100305.56
2023-04-18T11:16:30.810Z,100301.21
2023-04-18T11:17:32.907Z,100306.26
2023-04-18T11:18:42.769Z,100305.25
2023-04-18T11:19:46.593Z,100300.05
2023-04-18T11:20:51.278Z,100302.84
2023-04-18T11:21:58.927Z,100302.84
2023-04-18T11:23:01.864Z,100304.70
2023-04-18T11:24:07.066Z,100311.03
2023-04-18T11:25:12.360Z,100309.33
2023-04-18T11:26:19.935Z,100303.23
2023-04-18T11:27:24.528Z,100312.23
2023-04-18T11:28:27.478Z,100299.01
2023-04-18T11:29:30.194Z,100301.80
2023-04-18T11:30:40.279Z,100302.66
2023-04-18T11:31:54.587Z,100298.42
2023-04-18T11:34:17.020Z,100291.32
2023-04-18T11:35:19.933Z,100292.79
2023-04-18T11:36:22.372Z,100297.30
2023-04-18T11:37:24.644Z,100291.94
2023-04-18T11:38:33.009Z,100299.12
2023-04-18T11:39:44.086Z,100297.30
2023-04-18T11:40:51.325Z,100285.88
2023-04-18T11:42:01.150Z,100291.36
2023-04-18T11:43:08.530Z,100290.50
2023-04-18T11:44:10.792Z,100291.51
2023-04-18T11:45:16.678Z,100293.33
2023-04-18T11:46:19.749Z,100288.09
2023-04-18T11:47:29.393Z,100290.92
2023-04-18T11:48:41.200Z,100287.39
2023-04-18T11:49:43.724Z,100290.22
2023-04-18T11:50:47.896Z,100288.52
2023-04-18T11:51:53.377Z,100288.52
2023-04-18T11:52:56.623Z,100284.13
2023-04-18T11:54:02.933Z,100282.46
2023-04-18T11:55:17.336Z,100283.44
2023-04-18T11:56:20.219Z,100286.96
2023-04-18T11:57:28.169Z,100286.96
2023-04-18T11:58:33.872Z,100282.58
2023-04-18T11:59:42.462Z,100282.58
2023-04-18T12:00:47.453Z,100288.94
2023-04-18T12:03:09.885Z,100279.80
2023-04-18T12:04:12.698Z,100283.84
2023-04-18T12:05:29.054Z,100280.32
2023-04-18T12:06:52.501Z,100275.82
2023-04-18T12:09:40.100Z,100282.47
2023-04-18T12:10:54.286Z,100276.67
2023-04-18T12:12:01.731Z,100275.82
2023-04-18T12:13:07.936Z,100280.17
2023-04-18T12:14:22.671Z,100287.38
2023-04-18T12:15:27.787Z,100280.17
2023-04-18T12:16:30.225Z,100284.70
2023-04-18T12:17:33.482Z,100293.55
2023-04-18T12:18:36.205Z,100287.38
2023-04-18T12:19:38.696Z,100278.50
2023-04-18T12:20:46.898Z,100282.03
2023-04-18T12:21:59.643Z,100284.82
2023-04-18T12:23:08.035Z,100288.34
2023-04-18T12:24:14.433Z,100282.30
2023-04-18T12:25:27.598Z,100278.77
2023-04-18T12:26:31.059Z,100282.41
2023-04-18T12:28:02.458Z,100283.41
2023-04-18T12:29:06.878Z,100287.91
2023-04-18T12:30:11.696Z,100281.70
2023-04-18T12:31:15.784Z,100274.66
2023-04-18T12:32:18.594Z,100283.68
2023-04-18T12:33:22.018Z,100274.92
2023-04-18T12:34:26.168Z,100282.13
2023-04-18T12:36:40.006Z,100274.27
2023-04-18T12:37:47.083Z,100266.72
2023-04-18T12:38:49.223Z,100272.92
2023-04-18T12:39:51.364Z,100272.92
2023-04-18T12:40:53.667Z,100269.28
2023-04-18T12:43:15.606Z,100264.80